Time;durP1;ratioP1;P1;durP2;ratioP2;P2;SDS_P1;SDS_P2;PMS_P1;PMS_P2;Temp;Humidity;BMP_temperature;BMP_pressure;BME280_temperature;BME280_humidity;BME280_pressure;Samples;Min_cycle;Max_cycle;Signal;HPM_P1;HPM_P2
2022/01/04 00:01:02;;;;;;;12.63;4.90;;;;;;;;;;4962590;28;20046;-76
2022/01/04 00:03:28;;;;;;;19.43;4.33;;;;;;;;;;4979436;28;20031;-76
2022/01/04 00:05:53;;;;;;;17.17;4.40;;;;;;;;;;4964663;28;20082;-75
2022/01/04 00:08:19;;;;;;;15.30;3.90;;;;;;;;;;4964974;28;20035;-75
2022/01/04 00:10:46;;;;;;;13.13;4.30;;;;;;;;;;4960687;28;20045;-74
2022/01/04 00:13:22;;;;;;;23.05;5.60;;;;;;;;;;4967982;28;20034;-74
2022/01/04 00:15:49;;;;;;;14.02;4.40;;;;;;;;;;4983568;28;20035;-74
2022/01/04 00:18:15;;;;;;;11.27;3.80;;;;;;;;;;4987591;28;20034;-75
2022/01/04 00:20:40;;;;;;;17.63;3.73;;;;;;;;;;4984202;28;20498;-74
2022/01/04 00:23:06;;;;;;;18.70;3.90;;;;;;;;;;4995683;28;20155;-75
2022/01/04 00:25:32;;;;;;;20.70;3.73;;;;;;;;;;4994040;28;20030;-74
2022/01/04 00:27:58;;;;;;;17.40;3.30;;;;;;;;;;4985921;28;20134;-74
2022/01/04 00:30:28;;;;;;;30.05;5.90;;;;;;;;;;4990577;28;20030;-74
2022/01/04 00:32:54;;;;;;;15.13;3.90;;;;;;;;;;4993410;28;20398;-74
2022/01/04 00:35:20;;;;;;;19.95;4.45;;;;;;;;;;4986758;28;20089;-74
2022/01/04 00:37:45;;;;;;;15.60;4.63;;;;;;;;;;4988917;28;20388;-74
2022/01/04 00:40:10;;;;;;;20.90;5.53;;;;;;;;;;4995655;28;20058;-75
2022/01/04 00:42:36;;;;;;;26.87;5.60;;;;;;;;;;4995121;28;20046;-73
2022/01/04 00:45:02;;;;;;;18.57;3.83;;;;;;;;;;4995097;28;20031;-74
2022/01/04 00:47:40;;;;;;;22.17;5.50;;;;;;;;;;5006682;28;20064;-72
2022/01/04 00:50:06;;;;;;;16.55;4.68;;;;;;;;;;4995274;28;20043;-74
2022/01/04 00:52:31;;;;;;;24.70;4.63;;;;;;;;;;4994426;28;20030;-74
2022/01/04 00:54:57;;;;;;;22.67;4.63;;;;;;;;;;4983731;28;20030;-73
2022/01/04 00:57:22;;;;;;;15.97;4.60;;;;;;;;;;4982611;28;20395;-73
2022/01/04 00:59:48;;;;;;;33.27;6.90;;;;;;;;;;4991789;28;20034;-74
2022/01/04 01:02:13;;;;;;;22.00;5.50;;;;;;;;;;5007936;28;20070;-73
2022/01/04 01:04:39;;;;;;;23.60;5.30;;;;;;;;;;4989330;28;20030;-74
2022/01/04 01:07:05;;;;;;;19.10;4.77;;;;;;;;;;4989648;28;20037;-75
2022/01/04 01:09:34;;;;;;;22.60;5.60;;;;;;;;;;4994956;28;20368;-75
2022/01/04 01:12:00;;;;;;;20.73;6.45;;;;;;;;;;4980962;28;20108;-72
2022/01/04 01:14:25;;;;;;;17.60;7.23;;;;;;;;;;4994152;28;20066;-73
2022/01/04 01:16:51;;;;;;;32.57;7.63;;;;;;;;;;4994133;28;20077;-72
2022/01/04 01:19:16;;;;;;;30.30;6.20;;;;;;;;;;4988361;28;20026;-72
2022/01/04 01:21:42;;;;;;;22.70;7.47;;;;;;;;;;4994722;28;20026;-72
2022/01/04 01:24:07;;;;;;;18.47;6.07;;;;;;;;;;4994115;28;20038;-73
2022/01/04 01:26:32;;;;;;;15.77;5.97;;;;;;;;;;4994657;28;20027;-72
2022/01/04 01:28:58;;;;;;;27.40;6.60;;;;;;;;;;4993487;28;20022;-72
2022/01/04 01:31:24;;;;;;;23.07;6.97;;;;;;;;;;4993455;28;20062;-75
2022/01/04 01:33:50;;;;;;;30.90;8.25;;;;;;;;;;4994338;28;20030;-75
2022/01/04 01:36:15;;;;;;;25.63;6.77;;;;;;;;;;4994331;28;20481;-75
2022/01/04 01:38:40;;;;;;;19.70;5.83;;;;;;;;;;4994211;28;20034;-74
2022/01/04 01:41:06;;;;;;;24.47;7.47;;;;;;;;;;4994349;28;20061;-75
2022/01/04 01:43:31;;;;;;;26.00;5.43;;;;;;;;;;4994245;28;20117;-72
2022/01/04 01:45:58;;;;;;;18.87;5.30;;;;;;;;;;4974593;28;20030;-72
2022/01/04 01:48:23;;;;;;;20.15;4.80;;;;;;;;;;5009428;28;20398;-72
2022/01/04 01:50:49;;;;;;;23.03;5.67;;;;;;;;;;4994118;28;20034;-72
2022/01/04 01:53:15;;;;;;;21.27;4.83;;;;;;;;;;4993010;28;20051;-72
2022/01/04 01:55:40;;;;;;;33.67;6.20;;;;;;;;;;5009014;28;20154;-72
2022/01/04 01:58:06;;;;;;;23.23;5.07;;;;;;;;;;4994224;28;20113;-72
2022/01/04 02:00:31;;;;;;;17.37;4.97;;;;;;;;;;4994011;28;20395;-72
2022/01/04 02:02:57;;;;;;;26.30;5.43;;;;;;;;;;4986028;28;20029;-72
2022/01/04 02:05:23;;;;;;;28.55;6.18;;;;;;;;;;4991127;28;20041;-72
2022/01/04 02:07:48;;;;;;;25.63;5.63;;;;;;;;;;4986408;28;20038;-72
2022/01/04 02:10:14;;;;;;;26.37;5.67;;;;;;;;;;4990800;28;20031;-72
2022/01/04 02:12:42;;;;;;;27.37;5.20;;;;;;;;;;4991223;28;20026;-72
2022/01/04 02:15:11;;;;;;;28.17;6.22;;;;;;;;;;4997763;28;20096;-72
2022/01/04 02:17:37;;;;;;;25.83;5.75;;;;;;;;;;5007076;28;20387;-72
2022/01/04 02:20:04;;;;;;;26.77;4.03;;;;;;;;;;4988743;28;20030;-72
2022/01/04 02:22:30;;;;;;;18.58;4.68;;;;;;;;;;4973298;28;20503;-72
2022/01/04 02:24:56;;;;;;;20.88;4.18;;;;;;;;;;4989280;28;20031;-72
2022/01/04 02:27:21;;;;;;;16.57;4.73;;;;;;;;;;4980045;28;20031;-72
2022/01/04 02:29:47;;;;;;;16.63;4.53;;;;;;;;;;4979643;28;20031;-72
2022/01/04 02:32:13;;;;;;;21.83;5.10;;;;;;;;;;5004512;28;20049;-72
2022/01/04 02:34:40;;;;;;;22.90;4.83;;;;;;;;;;4988417;28;20078;-72
2022/01/04 02:37:06;;;;;;;20.85;3.75;;;;;;;;;;4995340;28;20038;-72
2022/01/04 02:39:35;;;;;;;15.88;5.53;;;;;;;;;;4985994;28;20042;-72
2022/01/04 02:42:02;;;;;;;25.08;5.07;;;;;;;;;;4983359;28;20034;-72
2022/01/04 02:44:27;;;;;;;14.98;4.65;;;;;;;;;;5001142;28;20471;-72
2022/01/04 02:46:52;;;;;;;18.67;3.93;;;;;;;;;;4987723;28;20132;-72
2022/01/04 02:49:18;;;;;;;20.10;4.40;;;;;;;;;;4993506;28;20034;-72
2022/01/04 02:51:43;;;;;;;37.33;6.83;;;;;;;;;;4983243;28;20030;-72
2022/01/04 02:54:09;;;;;;;17.60;4.93;;;;;;;;;;4983773;28;20087;-72
2022/01/04 02:56:34;;;;;;;29.37;5.20;;;;;;;;;;4979608;28;20391;-73
2022/01/04 02:59:03;;;;;;;26.17;4.97;;;;;;;;;;4982770;28;20088;-72
2022/01/04 03:01:30;;;;;;;26.25;6.97;;;;;;;;;;4994252;28;20101;-72
2022/01/04 03:03:55;;;;;;;24.58;4.80;;;;;;;;;;4991486;28;20034;-72
2022/01/04 03:06:20;;;;;;;20.77;4.83;;;;;;;;;;4986822;28;20045;-72
2022/01/04 03:08:46;;;;;;;22.37;5.67;;;;;;;;;;4994521;28;20034;-73
2022/01/04 03:11:11;;;;;;;19.47;4.93;;;;;;;;;;4985525;28;20061;-72
2022/01/04 03:13:37;;;;;;;25.30;4.60;;;;;;;;;;4985256;28;20042;-75
2022/01/04 03:16:02;;;;;;;21.67;4.27;;;;;;;;;;4985206;28;20094;-75
2022/01/04 03:18:28;;;;;;;25.93;5.57;;;;;;;;;;4989843;28;20061;-74
2022/01/04 03:20:53;;;;;;;15.17;4.57;;;;;;;;;;4988101;28;20034;-77
2022/01/04 03:23:18;;;;;;;16.93;4.40;;;;;;;;;;4984036;28;20059;-75
2022/01/04 03:25:44;;;;;;;20.93;4.37;;;;;;;;;;4986889;28;20464;-72
2022/01/04 03:28:09;;;;;;;13.00;3.53;;;;;;;;;;4995699;28;20077;-73
2022/01/04 03:30:35;;;;;;;21.97;4.63;;;;;;;;;;5004186;28;20113;-73
2022/01/04 03:33:01;;;;;;;20.53;5.17;;;;;;;;;;4992030;28;20481;-72
2022/01/04 03:35:26;;;;;;;19.73;4.83;;;;;;;;;;4998224;28;20086;-72
2022/01/04 03:37:52;;;;;;;22.93;5.37;;;;;;;;;;4993625;28;20031;-72
2022/01/04 03:40:17;;;;;;;17.90;4.90;;;;;;;;;;4990867;28;20034;-73
2022/01/04 03:42:43;;;;;;;18.20;4.33;;;;;;;;;;4982200;28;20034;-72
2022/01/04 03:45:08;;;;;;;41.10;4.83;;;;;;;;;;4985030;28;20117;-72
2022/01/04 03:47:34;;;;;;;18.13;4.00;;;;;;;;;;4989125;28;20109;-72
2022/01/04 03:50:00;;;;;;;14.27;4.57;;;;;;;;;;4998736;28;20038;-72
2022/01/04 03:52:25;;;;;;;16.27;5.43;;;;;;;;;;4990505;28;20268;-72
2022/01/04 03:54:51;;;;;;;19.90;4.53;;;;;;;;;;5001487;28;20053;-72
2022/01/04 03:57:16;;;;;;;27.57;4.97;;;;;;;;;;4982046;28;20042;-72
2022/01/04 03:59:42;;;;;;;22.93;5.20;;;;;;;;;;5000822;28;20391;-72
2022/01/04 04:02:07;;;;;;;27.30;6.37;;;;;;;;;;4996287;28;20046;-72
2022/01/04 04:04:33;;;;;;;27.00;5.00;;;;;;;;;;4987765;28;20047;-74
2022/01/04 04:06:58;;;;;;;15.73;4.43;;;;;;;;;;5001737;28;20082;-73
2022/01/04 04:09:24;;;;;;;17.90;4.60;;;;;;;;;;4982227;28;20042;-72
2022/01/04 04:11:49;;;;;;;24.70;4.70;;;;;;;;;;4991582;28;20040;-72
2022/01/04 04:14:15;;;;;;;16.47;4.47;;;;;;;;;;5000143;28;20038;-72
2022/01/04 04:16:40;;;;;;;15.13;3.97;;;;;;;;;;4994577;28;20529;-72
2022/01/04 04:19:05;;;;;;;21.50;4.07;;;;;;;;;;4992239;28;20026;-72
2022/01/04 04:21:31;;;;;;;14.63;3.83;;;;;;;;;;4987058;28;20089;-72
2022/01/04 04:23:56;;;;;;;17.30;4.70;;;;;;;;;;4985794;28;20042;-72
2022/01/04 04:26:22;;;;;;;15.90;4.40;;;;;;;;;;4987521;28;20446;-72
2022/01/04 04:28:47;;;;;;;16.60;4.43;;;;;;;;;;4989961;28;20034;-73
2022/01/04 04:31:13;;;;;;;15.83;4.50;;;;;;;;;;4982716;28;20027;-73
2022/01/04 04:33:38;;;;;;;20.60;4.03;;;;;;;;;;4984471;28;20435;-72
2022/01/04 04:36:04;;;;;;;18.27;4.37;;;;;;;;;;4994299;28;20039;-73
2022/01/04 04:38:29;;;;;;;19.23;4.57;;;;;;;;;;4993384;28;20056;-72
2022/01/04 04:40:55;;;;;;;14.20;4.27;;;;;;;;;;4983509;28;20039;-72
2022/01/04 04:43:20;;;;;;;22.83;4.57;;;;;;;;;;4983401;28;20022;-73
2022/01/04 04:45:45;;;;;;;15.30;4.03;;;;;;;;;;4983374;28;20106;-72
2022/01/04 04:48:11;;;;;;;14.87;4.03;;;;;;;;;;4990002;28;20049;-72
2022/01/04 04:50:36;;;;;;;18.10;4.23;;;;;;;;;;4981690;28;20579;-72
2022/01/04 04:53:02;;;;;;;15.13;4.70;;;;;;;;;;4988754;28;20068;-72
2022/01/04 04:55:27;;;;;;;10.00;3.90;;;;;;;;;;4989278;28;20121;-72
2022/01/04 04:57:52;;;;;;;17.20;4.47;;;;;;;;;;4993604;28;20081;-72
2022/01/04 05:00:18;;;;;;;12.70;3.50;;;;;;;;;;4984804;28;20049;-75
2022/01/04 05:02:43;;;;;;;11.27;3.93;;;;;;;;;;4985260;28;20038;-74
2022/01/04 05:05:09;;;;;;;16.63;3.77;;;;;;;;;;4994667;28;20041;-74
2022/01/04 05:07:35;;;;;;;18.23;4.07;;;;;;;;;;4983672;28;20030;-76
2022/01/04 05:10:03;;;;;;;20.93;4.07;;;;;;;;;;4990008;28;20034;-74
2022/01/04 05:12:28;;;;;;;13.38;3.42;;;;;;;;;;4994829;28;20029;-74
2022/01/04 05:14:54;;;;;;;12.30;2.90;;;;;;;;;;4994834;28;20030;-74
2022/01/04 05:17:19;;;;;;;12.10;3.33;;;;;;;;;;5007429;28;20080;-75
2022/01/04 05:19:45;;;;;;;12.47;3.07;;;;;;;;;;4987909;28;20486;-74
2022/01/04 05:22:10;;;;;;;9.70;3.60;;;;;;;;;;4984698;28;20038;-74
2022/01/04 05:24:35;;;;;;;9.23;3.13;;;;;;;;;;4985696;28;20050;-74
2022/01/04 05:27:01;;;;;;;14.60;3.50;;;;;;;;;;4990415;28;20037;-73
2022/01/04 05:29:27;;;;;;;17.97;3.97;;;;;;;;;;4994665;28;20101;-74
2022/01/04 05:31:52;;;;;;;12.77;3.90;;;;;;;;;;4994546;28;20037;-73
2022/01/04 05:34:17;;;;;;;18.63;4.20;;;;;;;;;;4992138;28;20036;-74
2022/01/04 05:36:43;;;;;;;14.50;3.87;;;;;;;;;;4991013;28;20033;-73
2022/01/04 05:39:09;;;;;;;17.67;3.90;;;;;;;;;;4991456;28;20038;-73
2022/01/04 05:41:34;;;;;;;11.70;3.50;;;;;;;;;;4981933;28;20380;-73
2022/01/04 05:44:00;;;;;;;9.53;3.87;;;;;;;;;;4991154;28;20022;-73
2022/01/04 05:46:25;;;;;;;5.90;1.60;;;;;;;;;;5009586;28;20042;-73
2022/01/04 05:48:51;;;;;;;3.83;1.10;;;;;;;;;;4991227;28;20029;-73
2022/01/04 05:51:16;;;;;;;3.53;1.80;;;;;;;;;;4990777;28;20517;-73
2022/01/04 05:53:42;;;;;;;5.23;0.97;;;;;;;;;;4990339;28;20034;-74
2022/01/04 05:56:07;;;;;;;1.33;0.60;;;;;;;;;;5000847;28;20026;-73
2022/01/04 05:58:33;;;;;;;1.73;0.63;;;;;;;;;;4996286;28;20463;-73
2022/01/04 06:00:59;;;;;;;2.90;0.60;;;;;;;;;;4992836;28;20034;-76
2022/01/04 06:03:24;;;;;;;0.80;0.40;;;;;;;;;;4984651;28;20490;-76
2022/01/04 06:05:49;;;;;;;1.03;0.40;;;;;;;;;;4989695;28;20038;-76
2022/01/04 06:08:15;;;;;;;9.80;0.80;;;;;;;;;;4987586;28;20479;-76
2022/01/04 06:10:43;;;;;;;1.00;0.53;;;;;;;;;;4992647;28;20030;-76
2022/01/04 06:15:38;;;;;;;1.60;0.90;;;;;;;;;;4986545;28;20117;-73
2022/01/04 06:18:03;;;;;;;0.70;0.45;;;;;;;;;;4987101;28;20026;-73
2022/01/04 06:20:29;;;;;;;0.93;0.67;;;;;;;;;;5003249;28;20038;-73
2022/01/04 06:22:54;;;;;;;1.80;0.53;;;;;;;;;;4996414;28;20452;-74
2022/01/04 06:25:21;;;;;;;1.43;0.70;;;;;;;;;;5008994;28;20518;-74
2022/01/04 06:27:48;;;;;;;1.58;0.80;;;;;;;;;;4990861;28;20097;-73
2022/01/04 06:30:18;;;;;;;1.40;0.77;;;;;;;;;;5008875;28;20039;-73
2022/01/04 06:32:44;;;;;;;1.55;0.80;;;;;;;;;;4984805;28;20026;-73
2022/01/04 06:35:10;;;;;;;2.08;1.00;;;;;;;;;;4976559;28;20062;-73
2022/01/04 06:37:36;;;;;;;2.37;0.93;;;;;;;;;;5000727;28;20045;-73
2022/01/04 06:40:03;;;;;;;2.07;1.03;;;;;;;;;;5008744;28;20738;-73
2022/01/04 06:42:28;;;;;;;2.75;1.45;;;;;;;;;;4990323;28;20477;-73
2022/01/04 06:44:53;;;;;;;7.43;1.90;;;;;;;;;;4992467;28;20043;-73
2022/01/04 06:47:19;;;;;;;3.33;1.80;;;;;;;;;;4987413;28;20034;-73
2022/01/04 06:49:44;;;;;;;4.23;1.83;;;;;;;;;;4991504;28;20030;-74
2022/01/04 06:52:10;;;;;;;2.93;2.13;;;;;;;;;;4990774;28;20042;-73
2022/01/04 06:54:35;;;;;;;4.20;2.30;;;;;;;;;;4983463;28;20081;-73
2022/01/04 06:57:01;;;;;;;4.00;2.30;;;;;;;;;;4976694;28;20038;-73
2022/01/04 06:59:27;;;;;;;3.90;2.00;;;;;;;;;;4988386;28;20530;-73
2022/01/04 07:01:52;;;;;;;3.70;1.70;;;;;;;;;;4987730;28;20039;-74
2022/01/04 07:04:17;;;;;;;2.37;1.77;;;;;;;;;;4982405;28;20034;-73
2022/01/04 07:06:43;;;;;;;2.57;1.63;;;;;;;;;;4991256;28;20042;-73
2022/01/04 07:09:08;;;;;;;2.70;1.60;;;;;;;;;;5007430;28;20068;-73
2022/01/04 07:11:34;;;;;;;4.37;1.10;;;;;;;;;;4985532;28;20064;-73
2022/01/04 07:14:00;;;;;;;1.37;0.90;;;;;;;;;;4976998;28;20133;-73
2022/01/04 07:16:25;;;;;;;2.47;0.90;;;;;;;;;;4990223;28;20026;-73
2022/01/04 07:18:51;;;;;;;1.23;0.93;;;;;;;;;;4986971;28;20077;-73
2022/01/04 07:21:17;;;;;;;1.80;0.90;;;;;;;;;;4987377;28;20394;-74
2022/01/04 07:23:43;;;;;;;2.00;0.82;;;;;;;;;;4990099;28;20403;-73
2022/01/04 07:26:14;;;;;;;1.48;0.90;;;;;;;;;;4985832;28;20047;-73
2022/01/04 07:28:41;;;;;;;1.98;1.05;;;;;;;;;;4982874;28;20041;-73
2022/01/04 07:31:06;;;;;;;;;;;;;;;;;;4979477;28;20034;-75
2022/01/04 07:33:32;;;;;;;1.08;0.70;;;;;;;;;;4985343;28;19918;-76
2022/01/04 07:35:57;;;;;;;1.17;0.63;;;;;;;;;;4983927;28;20043;-75
2022/01/04 07:38:23;;;;;;;2.20;0.63;;;;;;;;;;4986804;28;20033;-75
2022/01/04 07:40:48;;;;;;;5.67;0.80;;;;;;;;;;5007810;28;20033;-75
2022/01/04 07:43:14;;;;;;;1.53;0.77;;;;;;;;;;4972944;28;20043;-72
2022/01/04 07:45:39;;;;;;;2.87;0.67;;;;;;;;;;4983546;28;20097;-72
2022/01/04 07:48:06;;;;;;;2.20;0.70;;;;;;;;;;4993623;28;20041;-72
2022/01/04 07:50:32;;;;;;;0.98;0.60;;;;;;;;;;4989750;28;20371;-72
2022/01/04 07:52:57;;;;;;;1.53;0.83;;;;;;;;;;4979654;28;20054;-72
2022/01/04 07:55:23;;;;;;;2.13;0.90;;;;;;;;;;4987270;28;20030;-72
2022/01/04 07:57:48;;;;;;;1.03;0.70;;;;;;;;;;4985198;28;20049;-73
2022/01/04 08:00:15;;;;;;;2.03;0.60;;;;;;;;;;4987516;28;20097;-73
2022/01/04 08:02:41;;;;;;;0.95;0.70;;;;;;;;;;5002531;28;20030;-74
2022/01/04 08:05:08;;;;;;;2.15;0.70;;;;;;;;;;5002180;28;20535;-73
2022/01/04 08:07:33;;;;;;;;;;;;;;;;;;4992396;28;20494;-72
2022/01/04 08:09:59;;;;;;;0.60;0.35;;;;;;;;;;4989653;28;19914;-73
2022/01/04 08:12:25;;;;;;;1.23;0.85;;;;;;;;;;4986271;28;20404;-74
2022/01/04 08:14:51;;;;;;;1.43;0.70;;;;;;;;;;5005997;28;20039;-74
2022/01/04 08:17:16;;;;;;;3.13;0.73;;;;;;;;;;4989961;28;20426;-74
2022/01/04 08:19:42;;;;;;;1.17;0.57;;;;;;;;;;4987602;28;20054;-74
2022/01/04 08:22:07;;;;;;;2.03;1.03;;;;;;;;;;4977898;28;20391;-73
2022/01/04 08:24:32;;;;;;;2.20;0.60;;;;;;;;;;4984673;28;20043;-73
2022/01/04 08:26:58;;;;;;;1.33;0.77;;;;;;;;;;4989632;28;20038;-73
2022/01/04 08:29:24;;;;;;;1.63;0.70;;;;;;;;;;4995033;28;20031;-73
2022/01/04 08:31:50;;;;;;;0.90;0.60;;;;;;;;;;4989781;28;20442;-75
2022/01/04 08:34:15;;;;;;;1.20;0.70;;;;;;;;;;4979068;28;20121;-75
2022/01/04 08:36:41;;;;;;;1.23;0.60;;;;;;;;;;4985626;28;20419;-75
2022/01/04 08:39:06;;;;;;;1.23;0.63;;;;;;;;;;4986979;28;20114;-74
2022/01/04 08:41:32;;;;;;;2.83;0.70;;;;;;;;;;4994586;28;20034;-75
2022/01/04 08:43:57;;;;;;;0.97;0.60;;;;;;;;;;4990688;28;20121;-73
2022/01/04 08:46:24;;;;;;;2.37;0.60;;;;;;;;;;4995515;28;20066;-73
2022/01/04 08:48:50;;;;;;;;;;;;;;;;;;4966542;28;20451;-73
2022/01/04 08:51:15;;;;;;;3.63;0.50;;;;;;;;;;4991005;28;19957;-72
2022/01/04 08:53:40;;;;;;;1.87;0.37;;;;;;;;;;4983161;28;20040;-73
2022/01/04 08:56:06;;;;;;;1.77;0.90;;;;;;;;;;4978263;28;20419;-73
2022/01/04 08:58:32;;;;;;;1.20;0.60;;;;;;;;;;4977488;28;20425;-73
2022/01/04 09:00:57;;;;;;;0.70;0.33;;;;;;;;;;4977699;28;20026;-73
2022/01/04 09:03:24;;;;;;;0.87;0.40;;;;;;;;;;4983261;28;20106;-73
2022/01/04 09:05:50;;;;;;;;;;;;;;;;;;4982587;28;20050;-73
2022/01/04 09:08:15;;;;;;;0.80;0.50;;;;;;;;;;4982954;28;19965;-74
2022/01/04 09:10:40;;;;;;;0.80;0.40;;;;;;;;;;4958303;28;20486;-73
2022/01/04 09:13:18;;;;;;;1.70;0.60;;;;;;;;;;4972319;28;20109;-73
2022/01/04 09:18:45;;;;;;;0.90;0.40;;;;;;;;;;4989849;28;20121;-73
2022/01/04 09:21:16;;;;;;;1.10;0.60;;;;;;;;;;4974873;28;20378;-74
2022/01/04 09:23:42;;;;;;;1.05;0.50;;;;;;;;;;4975295;28;20051;-73
2022/01/04 09:26:09;;;;;;;3.25;0.98;;;;;;;;;;4972552;28;20070;-73
2022/01/04 09:28:34;;;;;;;;;;;;;;;;;;4973657;28;20189;-73
2022/01/04 09:31:00;;;;;;;1.75;0.77;;;;;;;;;;4988744;28;20417;-74
2022/01/04 09:33:25;;;;;;;1.00;0.50;;;;;;;;;;4975702;28;20031;-74
2022/01/04 09:35:51;;;;;;;2.13;0.80;;;;;;;;;;4995811;28;20030;-73
2022/01/04 09:38:17;;;;;;;1.23;0.60;;;;;;;;;;4977938;28;20047;-73
2022/01/04 09:40:43;;;;;;;;;;;;;;;;;;4991235;28;20514;-74
2022/01/04 09:43:09;;;;;;;1.83;0.80;;;;;;;;;;4988357;28;19944;-73
2022/01/04 09:45:35;;;;;;;1.50;0.80;;;;;;;;;;4985950;28;20034;-73
2022/01/04 09:48:01;;;;;;;1.00;0.70;;;;;;;;;;4989023;28;20030;-73
2022/01/04 09:50:27;;;;;;;1.67;0.77;;;;;;;;;;4992202;28;20026;-74
2022/01/04 09:52:55;;;;;;;2.47;0.90;;;;;;;;;;4998788;28;20050;-73
2022/01/04 09:55:20;;;;;;;2.30;1.30;;;;;;;;;;5009036;28;20026;-74
2022/01/04 09:57:46;;;;;;;1.37;0.70;;;;;;;;;;4988418;28;20038;-73
2022/01/04 10:00:14;;;;;;;1.58;0.80;;;;;;;;;;4980258;28;20049;-73
2022/01/04 10:02:41;;;;;;;1.85;1.00;;;;;;;;;;4998741;28;20042;-73
2022/01/04 10:05:23;;;;;;;2.42;0.90;;;;;;;;;;4992466;28;20376;-73
2022/01/04 10:08:00;;;;;;;2.53;1.00;;;;;;;;;;4988948;28;20046;-74
2022/01/04 10:10:25;;;;;;;3.20;1.10;;;;;;;;;;4993134;28;20414;-73
2022/01/04 10:12:53;;;;;;;7.27;2.07;;;;;;;;;;4988837;28;20121;-73
2022/01/04 10:15:32;;;;;;;6.25;1.42;;;;;;;;;;4986045;28;20030;-74
2022/01/04 10:18:02;;;;;;;6.25;0.90;;;;;;;;;;4978465;28;20043;-73
2022/01/04 10:20:27;;;;;;;2.70;1.35;;;;;;;;;;4974810;28;20133;-73
2022/01/04 10:22:53;;;;;;;3.07;0.80;;;;;;;;;;5008574;28;20132;-73
2022/01/04 10:25:20;;;;;;;1.60;0.70;;;;;;;;;;4976605;28;20495;-73
2022/01/04 10:27:52;;;;;;;4.80;0.98;;;;;;;;;;4988836;28;20122;-73
2022/01/04 10:30:20;;;;;;;3.03;0.90;;;;;;;;;;4987266;28;20475;-73
2022/01/04 10:33:05;;;;;;;5.20;1.23;;;;;;;;;;4985815;28;20105;-75
2022/01/04 10:35:38;;;;;;;2.55;0.80;;;;;;;;;;4991940;28;20026;-75
2022/01/04 10:38:16;;;;;;;3.17;0.80;;;;;;;;;;4984190;28;20122;-74
2022/01/04 10:40:51;;;;;;;7.65;1.00;;;;;;;;;;4976880;28;20101;-75
2022/01/04 10:43:20;;;;;;;3.47;0.73;;;;;;;;;;4977557;28;20173;-75
2022/01/04 10:45:47;;;;;;;4.82;0.82;;;;;;;;;;4975860;28;20034;-75
2022/01/04 10:48:25;;;;;;;3.83;1.00;;;;;;;;;;4973182;28;20038;-72
2022/01/04 10:50:58;;;;;;;4.43;1.15;;;;;;;;;;4972861;28;20027;-74
2022/01/04 10:53:29;;;;;;;3.30;1.10;;;;;;;;;;4974486;28;20097;-74
2022/01/04 10:55:57;;;;;;;4.57;1.05;;;;;;;;;;4990424;28;20042;-73
2022/01/04 10:58:27;;;;;;;3.70;1.27;;;;;;;;;;4987415;28;20034;-73
2022/01/04 11:00:55;;;;;;;3.28;1.00;;;;;;;;;;4980088;28;20043;-75
2022/01/04 11:03:26;;;;;;;5.10;1.27;;;;;;;;;;4983026;28;20037;-76
2022/01/04 11:05:58;;;;;;;7.80;1.05;;;;;;;;;;4993302;28;20510;-74
2022/01/04 11:08:23;;;;;;;4.30;1.15;;;;;;;;;;5011521;28;20031;-76
2022/01/04 11:10:50;;;;;;;5.80;1.03;;;;;;;;;;5011647;28;20038;-75
2022/01/04 11:13:15;;;;;;;2.92;0.95;;;;;;;;;;5007027;28;20108;-75
2022/01/04 11:15:41;;;;;;;6.27;1.30;;;;;;;;;;5011131;28;20070;-75
2022/01/04 11:18:07;;;;;;;4.60;1.10;;;;;;;;;;4990748;28;20074;-75
2022/01/04 11:20:33;;;;;;;3.70;1.73;;;;;;;;;;4966055;28;20027;-75
2022/01/04 11:22:59;;;;;;;2.70;0.83;;;;;;;;;;4962783;28;20074;-76
2022/01/04 11:25:24;;;;;;;6.07;1.20;;;;;;;;;;4977193;28;20629;-75
2022/01/04 11:27:53;;;;;;;9.10;1.50;;;;;;;;;;4964216;28;20037;-75
2022/01/04 11:30:26;;;;;;;8.07;1.45;;;;;;;;;;4958983;28;20043;-75
2022/01/04 11:32:59;;;;;;;7.45;1.42;;;;;;;;;;4978317;28;20057;-76
2022/01/04 11:35:26;;;;;;;6.75;1.20;;;;;;;;;;4963260;28;20093;-76
2022/01/04 11:37:57;;;;;;;10.30;2.95;;;;;;;;;;4976850;28;20154;-76
2022/01/04 11:40:31;;;;;;;6.13;2.05;;;;;;;;;;4974177;28;20041;-77
2022/01/04 11:42:56;;;;;;;5.85;1.73;;;;;;;;;;4978753;28;20031;-75
2022/01/04 11:45:55;;;;;;;5.13;1.07;;;;;;;;;;4979032;28;20053;-76
2022/01/04 11:48:35;;;;;;;11.25;1.25;;;;;;;;;;4963510;28;20144;-76
2022/01/04 11:51:06;;;;;;;5.10;1.17;;;;;;;;;;4960939;28;20053;-75
2022/01/04 11:53:32;;;;;;;6.55;1.30;;;;;;;;;;4979536;28;20035;-77
2022/01/04 11:56:04;;;;;;;3.28;1.38;;;;;;;;;;4964856;28;20145;-77
2022/01/04 11:59:02;;;;;;;7.18;1.30;;;;;;;;;;4963813;28;20043;-76
2022/01/04 12:01:27;;;;;;;8.13;1.20;;;;;;;;;;4947946;28;20066;-77
2022/01/04 12:03:53;;;;;;;10.93;2.77;;;;;;;;;;4965418;28;20050;-76
2022/01/04 12:06:21;;;;;;;8.97;1.53;;;;;;;;;;4978583;28;20038;-74
2022/01/04 12:08:48;;;;;;;4.70;1.13;;;;;;;;;;4963741;28;20034;-73
2022/01/04 12:11:26;;;;;;;4.13;1.30;;;;;;;;;;4959241;28;20062;-75
2022/01/04 12:13:57;;;;;;;3.75;1.10;;;;;;;;;;4968479;28;20038;-75
2022/01/04 12:16:37;;;;;;;7.75;1.25;;;;;;;;;;4965215;28;20435;-76
2022/01/04 12:19:07;;;;;;;8.98;1.40;;;;;;;;;;4979690;28;20034;-75
2022/01/04 12:21:37;;;;;;;4.35;1.10;;;;;;;;;;4979125;28;20034;-74
2022/01/04 12:24:04;;;;;;;6.20;1.20;;;;;;;;;;4964641;28;20055;-75
2022/01/04 12:26:32;;;;;;;;;;;;;;;;;;4979229;28;20054;-75
2022/01/04 12:28:58;;;;;;;3.60;0.93;;;;;;;;;;4991350;28;20016;-74
2022/01/04 12:31:30;;;;;;;3.38;0.93;;;;;;;;;;4981375;28;20042;-75
2022/01/04 12:33:58;;;;;;;3.95;1.20;;;;;;;;;;4982580;28;20054;-75
2022/01/04 12:36:41;;;;;;;5.85;1.67;;;;;;;;;;4975101;28;20034;-75
2022/01/04 12:39:18;;;;;;;5.25;1.35;;;;;;;;;;5000667;28;20030;-74
2022/01/04 12:41:47;;;;;;;5.78;1.52;;;;;;;;;;4986792;28;20036;-75
2022/01/04 12:44:18;;;;;;;7.22;1.40;;;;;;;;;;4982561;28;20045;-75
2022/01/04 12:46:46;;;;;;;6.28;1.25;;;;;;;;;;4996549;28;20079;-75
2022/01/04 12:49:20;;;;;;;2.75;1.33;;;;;;;;;;4993126;28;20030;-75
2022/01/04 12:51:52;;;;;;;6.25;1.45;;;;;;;;;;4987755;28;20041;-75
2022/01/04 12:54:19;;;;;;;5.43;1.58;;;;;;;;;;4993211;28;20031;-75
2022/01/04 12:57:01;;;;;;;7.20;1.02;;;;;;;;;;4986976;28;20058;-75
2022/01/04 12:59:26;;;;;;;6.40;1.38;;;;;;;;;;5005509;28;20070;-75
2022/01/04 13:01:53;;;;;;;9.00;1.53;;;;;;;;;;4980798;28;20062;-74
2022/01/04 13:04:21;;;;;;;5.47;1.20;;;;;;;;;;4988975;28;20144;-75
2022/01/04 13:06:47;;;;;;;3.53;1.05;;;;;;;;;;4992273;28;20463;-75
2022/01/04 13:09:18;;;;;;;5.82;1.35;;;;;;;;;;5009376;28;20081;-75
2022/01/04 13:11:50;;;;;;;6.85;1.85;;;;;;;;;;5009372;28;20104;-74
2022/01/04 13:14:21;;;;;;;6.65;1.45;;;;;;;;;;4990852;28;20483;-74
2022/01/04 13:16:47;;;;;;;5.72;1.10;;;;;;;;;;4994778;28;20105;-74
2022/01/04 13:19:22;;;;;;;4.13;1.70;;;;;;;;;;4976168;28;20390;-75
2022/01/04 13:21:55;;;;;;;15.48;1.30;;;;;;;;;;4975360;28;20073;-74
2022/01/04 13:24:51;;;;;;;6.07;1.20;;;;;;;;;;4987797;28;20129;-75
2022/01/04 13:27:24;;;;;;;8.40;1.52;;;;;;;;;;4973080;28;20054;-72
2022/01/04 13:29:51;;;;;;;8.00;2.22;;;;;;;;;;4961895;28;20075;-75
2022/01/04 13:32:17;;;;;;;;;;;;;;;;;;4978528;28;20034;-72
2022/01/04 13:34:43;;;;;;;6.32;1.30;;;;;;;;;;4977595;28;20293;-72
2022/01/04 13:37:09;;;;;;;12.32;1.65;;;;;;;;;;4973867;28;20101;-74
2022/01/04 13:39:35;;;;;;;9.40;2.00;;;;;;;;;;4962150;28;20046;-73
2022/01/04 13:42:00;;;;;;;7.40;2.17;;;;;;;;;;4961743;28;20034;-72
2022/01/04 13:44:26;;;;;;;6.10;1.00;;;;;;;;;;4962810;28;20755;-72
2022/01/04 13:46:51;;;;;;;6.13;1.03;;;;;;;;;;4959090;28;20031;-72
2022/01/04 13:49:28;;;;;;;5.90;1.50;;;;;;;;;;4960409;28;20054;-72
2022/01/04 13:51:54;;;;;;;7.32;1.65;;;;;;;;;;4989393;28;20510;-71
2022/01/04 13:54:20;;;;;;;11.20;2.45;;;;;;;;;;4998020;28;20042;-71
2022/01/04 13:56:45;;;;;;;3.93;1.53;;;;;;;;;;4981527;28;20403;-72
2022/01/04 13:59:20;;;;;;;9.53;1.37;;;;;;;;;;4980856;28;20034;-71
2022/01/04 14:01:47;;;;;;;4.45;1.05;;;;;;;;;;4978650;28;20030;-71
2022/01/04 14:04:15;;;;;;;9.70;1.65;;;;;;;;;;5008647;28;20043;-72
2022/01/04 14:06:42;;;;;;;6.40;1.48;;;;;;;;;;4983269;28;20037;-73
2022/01/04 14:09:16;;;;;;;7.63;1.23;;;;;;;;;;4985809;28;20041;-71
2022/01/04 14:11:43;;;;;;;7.97;0.98;;;;;;;;;;4974434;28;20070;-72
2022/01/04 14:14:25;;;;;;;4.80;1.25;;;;;;;;;;4981581;28;20038;-73
2022/01/04 14:17:10;;;;;;;5.50;1.27;;;;;;;;;;5002656;28;20042;-72
2022/01/04 14:19:49;;;;;;;6.50;1.40;;;;;;;;;;4991932;28;20038;-72
2022/01/04 14:22:34;;;;;;;5.32;1.40;;;;;;;;;;4980688;28;20189;-72
2022/01/04 14:25:02;;;;;;;7.90;1.85;;;;;;;;;;4984165;28;20086;-72
2022/01/04 14:27:39;;;;;;;10.18;1.65;;;;;;;;;;4989624;28;20031;-72
2022/01/04 14:30:24;;;;;;;7.18;1.90;;;;;;;;;;4996182;28;20046;-74
2022/01/04 14:32:52;;;;;;;7.50;1.58;;;;;;;;;;4992954;28;20487;-76
2022/01/04 14:35:25;;;;;;;7.28;1.48;;;;;;;;;;4993048;28;20113;-74
2022/01/04 14:37:54;;;;;;;7.80;2.75;;;;;;;;;;4993296;28;20034;-74
2022/01/04 14:40:22;;;;;;;7.97;2.03;;;;;;;;;;5001860;28;20034;-74
2022/01/04 14:42:48;;;;;;;7.55;1.00;;;;;;;;;;4986650;28;20034;-74
2022/01/04 14:45:15;;;;;;;4.80;1.30;;;;;;;;;;5008774;28;20482;-74
2022/01/04 14:47:41;;;;;;;7.63;1.42;;;;;;;;;;5008334;28;20039;-75